createdAt,value
2023-01-02T00:01:49.901Z,33.47
2023-01-02T00:06:52.281Z,42.43
2023-01-02T00:11:55.186Z,50.20
2023-01-02T00:16:57.747Z,45.37
2023-01-02T00:22:00.179Z,50.67
2023-01-02T00:27:02.771Z,47.87
2023-01-02T00:32:05.517Z,60.47
2023-01-02T00:37:07.898Z,65.20
2023-01-02T00:42:10.312Z,69.33
2023-01-02T00:47:12.753Z,57.77
2023-01-02T00:52:15.128Z,50.13
2023-01-02T00:57:17.634Z,53.57
2023-01-02T01:02:20.196Z,52.80
2023-01-02T01:07:22.705Z,55.03
2023-01-02T01:12:25.059Z,61.00
2023-01-02T01:17:27.500Z,54.17
2023-01-02T01:22:29.877Z,53.13
2023-01-02T01:27:32.553Z,48.97
2023-01-02T01:32:35.119Z,44.43
2023-01-02T01:37:39.503Z,46.30
2023-01-02T01:42:41.977Z,43.30
2023-01-02T01:47:50.304Z,45.93
2023-01-02T01:53:06.447Z,48.13
2023-01-02T01:58:11.597Z,49.13
2023-01-02T02:03:18.593Z,47.63
2023-01-02T02:08:27.153Z,55.67
2023-01-02T02:13:31.677Z,58.53
2023-01-02T02:19:18.934Z,56.43
2023-01-02T02:24:24.148Z,73.20
2023-01-02T02:29:29.490Z,72.80
2023-01-02T02:34:48.066Z,74.87
2023-01-02T02:40:09.210Z,68.50
2023-01-02T02:45:32.233Z,66.43
2023-01-02T02:50:43.025Z,56.63
2023-01-02T02:55:49.069Z,57.20
2023-01-02T03:01:00.170Z,52.97
2023-01-02T03:06:12.352Z,49.17
2023-01-02T03:11:15.467Z,53.40
2023-01-02T03:16:17.843Z,50.40
2023-01-02T03:21:57.459Z,47.57
2023-01-02T03:27:04.845Z,54.83
2023-01-02T03:32:13.781Z,52.00
2023-01-02T03:37:23.346Z,55.60
2023-01-02T03:43:01.107Z,39.10
2023-01-02T03:48:24.500Z,37.80
2023-01-02T03:53:27.849Z,37.87
2023-01-02T03:58:51.922Z,33.07
2023-01-02T04:04:02.948Z,28.17
2023-01-02T04:09:10.349Z,25.70
2023-01-02T04:14:18.922Z,35.70
2023-01-02T04:19:26.388Z,31.60
2023-01-02T04:24:33.343Z,38.30
2023-01-02T04:29:35.966Z,29.93
2023-01-02T04:34:40.882Z,25.40
2023-01-02T04:39:43.409Z,25.67
2023-01-02T04:44:45.815Z,29.17
2023-01-02T04:49:48.188Z,27.73
2023-01-02T04:54:50.622Z,29.90
2023-01-02T04:59:53.109Z,25.03
2023-01-02T05:04:55.462Z,24.13
2023-01-02T05:09:57.877Z,22.33
2023-01-02T05:15:00.290Z,25.07
2023-01-02T05:20:03.948Z,39.10
2023-01-02T05:25:06.711Z,54.77
2023-01-02T05:30:10.275Z,49.87
2023-01-02T05:35:13.238Z,35.80
2023-01-02T05:40:16.291Z,29.60
2023-01-02T05:45:18.742Z,31.93
2023-01-02T05:50:21.138Z,29.73
2023-01-02T05:55:23.690Z,33.70
2023-01-02T06:00:28.605Z,25.53
2023-01-02T06:05:31.036Z,29.10
2023-01-02T06:10:33.486Z,37.13
2023-01-02T06:15:35.934Z,45.73
2023-01-02T06:20:38.682Z,44.87
2023-01-02T06:25:41.326Z,38.40
2023-01-02T06:30:43.771Z,27.40
2023-01-02T06:35:46.563Z,26.57
2023-01-02T06:40:56.166Z,26.00
2023-01-02T06:46:04.595Z,27.73
2023-01-02T06:51:09.243Z,37.03
2023-01-02T06:56:13.091Z,36.63
2023-01-02T07:01:21.676Z,30.93
2023-01-02T07:06:24.377Z,27.73
2023-01-02T07:11:26.802Z,22.17
2023-01-02T07:16:29.215Z,18.23
2023-01-02T07:21:31.626Z,23.43
2023-01-02T07:26:34.036Z,23.43
2023-01-02T07:31:36.435Z,27.40
2023-01-02T07:36:39.198Z,34.00
2023-01-02T07:41:41.631Z,29.97
2023-01-02T07:46:49.600Z,24.70
2023-01-02T07:51:52.024Z,28.43
2023-01-02T07:56:54.400Z,23.83
2023-01-02T08:01:56.863Z,22.43
2023-01-02T08:06:59.376Z,27.80
2023-01-02T08:12:01.808Z,25.73
2023-01-02T08:17:04.344Z,26.67
2023-01-02T08:22:06.869Z,20.77
2023-01-02T08:27:09.281Z,21.90
2023-01-02T08:32:11.648Z,36.67
2023-01-02T08:37:14.836Z,24.63
2023-01-02T08:42:17.552Z,18.97
2023-01-02T08:47:19.925Z,22.00
2023-01-02T08:52:22.437Z,16.20
2023-01-02T08:57:24.822Z,16.33
2023-01-02T09:02:27.381Z,12.70
2023-01-02T09:07:32.511Z,16.83
2023-01-02T09:12:35.897Z,16.27
2023-01-02T09:17:38.275Z,18.87
2023-01-02T09:22:40.766Z,35.57
2023-01-02T09:27:43.132Z,18.00
2023-01-02T09:32:45.486Z,15.27
2023-01-02T09:37:48.565Z,15.83
2023-01-02T09:42:52.270Z,22.37
2023-01-02T09:47:56.909Z,32.80
2023-01-02T09:53:00.967Z,36.40
2023-01-02T09:58:14.459Z,20.87
2023-01-02T10:03:38.508Z,22.77
2023-01-02T10:08:53.089Z,21.53
2023-01-02T10:19:27.939Z,18.70
2023-01-02T10:24:38.736Z,30.77
2023-01-02T10:30:01.378Z,32.33
2023-01-02T10:35:06.807Z,31.37
2023-01-02T10:40:10.248Z,37.77
2023-01-02T10:45:16.268Z,26.27
2023-01-02T10:50:22.670Z,30.23
2023-01-02T10:55:37.292Z,22.20
2023-01-02T11:00:39.745Z,20.87
2023-01-02T11:05:53.637Z,51.47
2023-01-02T11:10:56.038Z,65.47
2023-01-02T11:16:01.208Z,42.93
2023-01-02T11:21:06.634Z,15.53
2023-01-02T11:26:24.174Z,31.43
2023-01-02T11:31:26.801Z,23.30
2023-01-02T11:36:29.656Z,22.37
2023-01-02T11:42:13.093Z,22.87
2023-01-02T11:47:17.280Z,25.97
2023-01-02T11:52:26.330Z,37.37
2023-01-02T11:57:50.583Z,38.23
2023-01-02T12:02:54.126Z,29.47
2023-01-02T12:08:05.969Z,31.17
2023-01-02T12:13:17.791Z,21.57
2023-01-02T12:18:35.736Z,24.23
2023-01-02T12:24:01.314Z,22.67
2023-01-02T12:29:47.903Z,19.70
2023-01-02T12:34:55.566Z,35.10
2023-01-02T12:40:29.304Z,56.00
2023-01-02T12:45:52.160Z,27.73
2023-01-02T12:51:02.778Z,18.87
2023-01-02T12:56:31.884Z,19.20
2023-01-02T13:01:37.184Z,22.13
2023-01-02T13:06:47.029Z,23.20
2023-01-02T13:12:10.598Z,32.73
2023-01-02T13:17:35.767Z,31.97
2023-01-02T13:22:51.668Z,31.57
2023-01-02T13:27:59.167Z,35.17
2023-01-02T13:33:06.408Z,40.00
2023-01-02T13:38:14.939Z,27.23
2023-01-02T13:43:28.952Z,34.43
2023-01-02T13:48:35.427Z,68.90
2023-01-02T13:53:40.428Z,61.63
2023-01-02T13:58:58.448Z,41.77
2023-01-02T14:04:12.907Z,36.77
2023-01-02T14:09:23.162Z,25.83
2023-01-02T14:14:41.892Z,36.13
2023-01-02T14:19:47.997Z,27.83
2023-01-02T14:24:52.841Z,30.73
2023-01-02T14:30:00.109Z,31.50
2023-01-02T14:35:28.002Z,29.37
2023-01-02T14:40:30.408Z,38.87
2023-01-02T14:45:35.259Z,43.77
2023-01-02T14:50:42.170Z,48.57
2023-01-02T14:55:47.573Z,47.60
2023-01-02T15:00:50.861Z,29.97
2023-01-02T15:06:02.052Z,25.47
2023-01-02T15:11:41.175Z,57.33
2023-01-02T15:16:53.677Z,40.87
2023-01-02T15:21:56.406Z,33.00
2023-01-02T15:27:23.538Z,31.27
2023-01-02T15:32:27.215Z,126.60
2023-01-02T15:37:29.653Z,41.13
2023-01-02T15:42:50.559Z,27.97
2023-01-02T15:47:53.912Z,44.03
2023-01-02T15:53:35.084Z,55.10
2023-01-02T15:58:37.580Z,26.97
2023-01-02T16:04:00.328Z,61.73
2023-01-02T16:09:16.806Z,115.30
2023-01-02T16:14:36.023Z,117.90
2023-01-02T16:19:54.657Z,107.57
2023-01-02T16:25:01.469Z,48.87
2023-01-02T16:30:28.392Z,44.77
2023-01-02T16:35:37.332Z,37.37
2023-01-02T16:41:01.255Z,53.80
2023-01-02T16:46:10.224Z,44.60
2023-01-02T16:51:15.541Z,47.00
2023-01-02T16:56:18.016Z,46.33
2023-01-02T17:01:22.703Z,38.30
2023-01-02T17:06:25.263Z,29.00
2023-01-02T17:11:27.844Z,150.60
2023-01-02T17:16:30.260Z,50.17
2023-01-02T17:21:33.200Z,43.77
2023-01-02T17:26:35.680Z,41.73
2023-01-02T17:31:38.463Z,38.43
2023-01-02T17:36:42.537Z,30.07
2023-01-02T17:41:44.970Z,38.87
2023-01-02T17:47:30.697Z,40.57
2023-01-02T17:52:12.506Z,33.30
2023-01-02T17:57:15.802Z,30.47
2023-01-02T18:02:20.655Z,42.73
2023-01-02T18:07:23.287Z,31.13
2023-01-02T18:12:26.276Z,27.73
2023-01-02T18:17:30.484Z,31.50
2023-01-02T18:22:33.094Z,28.17
2023-01-02T18:27:35.525Z,29.27
2023-01-02T18:32:40.895Z,25.43
2023-01-02T18:37:43.620Z,24.90
2023-01-02T18:42:56.228Z,23.70
2023-01-02T18:47:59.263Z,23.93
2023-01-02T18:53:16.359Z,19.63
2023-01-02T18:58:31.208Z,27.70
2023-01-02T19:03:33.911Z,30.23
2023-01-02T19:08:39.270Z,22.67
2023-01-02T19:13:41.791Z,18.77
2023-01-02T19:18:46.244Z,22.57
2023-01-02T19:23:48.607Z,24.20
2023-01-02T19:28:53.698Z,23.27
2023-01-02T19:33:59.546Z,20.23
2023-01-02T19:39:11.380Z,25.00
2023-01-02T19:44:13.784Z,33.17
2023-01-02T19:49:16.185Z,28.47
2023-01-02T19:54:18.779Z,17.37
2023-01-02T19:59:21.600Z,22.23
2023-01-02T20:04:24.005Z,14.37
2023-01-02T20:09:27.158Z,21.00
2023-01-02T20:14:29.616Z,17.20
2023-01-02T20:19:32.742Z,15.40
2023-01-02T20:24:36.284Z,17.23
2023-01-02T20:29:38.694Z,20.83
2023-01-02T20:34:41.315Z,16.83
2023-01-02T20:39:45.540Z,24.90
2023-01-02T20:44:50.482Z,18.80
2023-01-02T20:49:52.847Z,17.30
2023-01-02T20:54:55.218Z,16.27
2023-01-02T20:59:57.866Z,16.37
2023-01-02T21:05:00.355Z,15.77
2023-01-02T21:10:02.747Z,16.47
2023-01-02T21:15:05.385Z,18.83
2023-01-02T21:20:07.995Z,18.73
2023-01-02T21:25:10.464Z,21.47
2023-01-02T21:30:13.101Z,18.37
2023-01-02T21:35:15.630Z,18.70
2023-01-02T21:40:18.756Z,22.03
2023-01-02T21:45:21.779Z,23.70
2023-01-02T21:50:24.988Z,26.93
2023-01-02T21:55:27.556Z,24.13
2023-01-02T22:00:30.443Z,28.37
2023-01-02T22:05:32.844Z,19.47
2023-01-02T22:10:35.354Z,14.33
2023-01-02T22:15:37.868Z,19.33
2023-01-02T22:20:40.236Z,21.13
2023-01-02T22:25:42.679Z,44.97
2023-01-02T22:30:45.134Z,29.13
2023-01-02T22:35:48.400Z,17.13
2023-01-02T22:40:51.014Z,21.00
2023-01-02T22:45:54.365Z,16.43
2023-01-02T22:50:59.830Z,24.20
2023-01-02T22:56:10.802Z,26.80
2023-01-02T23:01:30.748Z,26.73
2023-01-02T23:06:35.509Z,22.33
2023-01-02T23:11:43.904Z,14.03
2023-01-02T23:17:04.723Z,17.67
2023-01-02T23:22:07.140Z,13.83
2023-01-02T23:27:11.891Z,15.10
2023-01-02T23:32:14.659Z,15.63
2023-01-02T23:37:20.034Z,19.63
2023-01-02T23:42:22.444Z,24.97
2023-01-02T23:47:24.876Z,28.67
2023-01-02T23:52:27.236Z,17.37
2023-01-02T23:57:29.639Z,17.10
